Woodland Park Weather Observations

home  gauges   today   yesterday   NOAA reports   graphs 
this month    this year    monthly records   extremes  

Observations from 6/17/2021 6:00 pm back to 6/14/2021 06:00 pm half hourly.

 

Observations previous 72 hours
 
Date/Time
MST
 
Temp
°F
App
Temp
°F
Heat
Index
°F
Wind
Chill
°F
Dew
Point
°F
Rel
Hum
%
 
Dir
 
 
Spd
kph
Wind
Gust
kph
 
Speed
MPH
 
Gust
MPH
Press
MSL
in
Rain
Since 12am
in
17/06:00pm 73.2 73.2 73.2 33.2 23 2.0 3.4 29.98 0.00 0 0
17/05:30pm 72.5 72.5 72.5 35.7 26 3.4 6.0 29.99 0.00 0 0
17/05:00pm 72.1 72.1 72.1 37.3 28 6.0 9.4 29.98 0.00 0 0
17/04:30pm 68.0 68.0 68.0 42.1 39 2.0 4.0 30.03 0.00 0 0
17/04:00pm 71.6 71.6 71.6 27.2 19 1.3 7.4 30.01 0.00 0 0
17/03:30pm 77.4 77.4 77.4 24.5 14 0.0 6.0 29.98 0.00 0 0
17/03:00pm 79.7 79.7 79.7 26.3 14 3.4 8.1 29.96 0.00 0 0
17/02:30pm 82.6 80.1 82.6 31.9 16 4.7 8.7 29.97 0.00 0 0
17/02:00pm 84.0 81.1 84.0 29.8 14 2.7 10.1 29.96 0.00 0 0
17/01:30pm 82.9 80.3 82.9 28.9 14 3.4 9.4 29.97 0.00 0 0
17/01:00pm 84.9 81.6 84.9 26.7 12 2.7 8.1 29.97 0.00 0 0
17/12:30pm 81.7 79.0 81.7 19.9 10 0.0 2.0 29.98 0.00 0 0
17/12:00pm 82.6 80.1 82.6 26.8 13 1.3 4.7 29.99 0.00 0 0
17/11:30am 83.8 80.8 83.8 25.9 12 2.0 10.7 29.98 0.00 0 0
17/11:00am 82.2 79.4 82.2 20.3 10 3.4 8.1 29.99 0.00 0 0
17/10:30am 80.1 78.0 80.1 20.9 11 2.7 5.4 30.00 0.00 0 0
17/10:00am 78.1 78.1 78.1 26.7 15 1.3 6.0 30.00 0.00 0 0
17/09:30am 75.7 75.7 75.7 33.1 21 0.7 3.4 30.01 0.00 0 0
17/09:00am 73.4 73.4 73.4 33.4 23 0.0 3.4 30.01 0.00 0 0
17/08:30am 70.9 70.9 70.9 35.3 27 0.7 4.7 30.01 0.00 0 0
17/08:00am 69.4 69.4 69.4 34.0 27 1.3 8.7 30.01 0.00 0 0
17/07:30am 65.3 65.3 65.3 36.2 34 0.0 1.3 30.00 0.00 0 0
17/07:08am 63.7 63.7 63.7 35.5 35 0.7 1.3 30.00 0.00 0 0
17/06:38am 61.3 61.3 61.3 33.4 35 0.0 0.7 29.99 0.00 0 0
17/06:08am 61.3 61.3 61.3 32.7 34 0.0 0.0 30.00 0.00 0 0
17/05:38am 59.4 59.4 59.4 34.4 39 0.7 1.3 30.00 0.00 0 0
17/05:08am 61.5 61.5 61.5 32.9 34 0.0 1.3 30.00 0.00 0 0
17/04:38am 61.2 61.2 61.2 31.8 33 0.0 0.0 30.01 0.00 0 0
17/04:08am 61.7 61.7 61.7 32.3 33 0.0 0.0 30.01 0.00 0 0
17/03:38am 62.4 62.4 62.4 31.4 31 0.0 0.0 30.00 0.00 0 0
17/03:08am 62.8 62.8 62.8 29.2 28 1.3 2.0 30.01 0.00 0 0
17/02:38am 60.8 60.8 60.8 30.7 32 2.7 3.4 30.02 0.00 0 0
17/02:08am 63.1 63.1 63.1 30.3 29 1.3 2.7 30.02 0.00 0 0
17/01:38am 61.7 61.7 61.7 30.7 31 0.0 0.0 30.03 0.00 0 0
17/01:08am 62.6 62.6 62.6 29.0 28 0.0 0.0 30.02 0.00 0 0
17/12:38am 63.3 63.3 63.3 30.5 29 0.0 0.0 30.03 0.00 0 0
17/12:08am 64.6 64.6 64.6 31.6 29 0.0 0.0 30.03 0.00 0 0
16/11:38pm 64.6 64.6 64.6 31.6 29 0.0 0.0 30.04 0.00 0 0
16/11:08pm 65.3 65.3 65.3 31.3 28 0.0 0.7 30.04 0.00 0 0
16/10:38pm 64.6 64.6 64.6 34.0 32 1.3 2.0 30.05 0.00 0 0
16/10:08pm 67.8 67.8 67.8 30.7 25 0.0 0.0 30.06 0.00 0 0
16/09:30pm 68.0 68.0 68.0 31.9 26 0.0 0.0 30.07 0.00 0 0
16/09:00pm 71.4 71.4 71.4 28.3 20 1.3 3.4 30.06 0.00 0 0
16/08:30pm 72.7 72.7 72.7 26.8 18 2.0 4.0 30.06 0.00 0 0
16/08:00pm 74.5 74.5 74.5 32.0 21 0.0 2.0 30.05 0.00 0 0
16/07:30pm 75.6 75.6 75.6 32.9 21 0.7 4.0 30.04 0.00 0 0
16/07:00pm 77.5 77.5 77.5 27.9 16 3.4 5.4 30.03 0.00 0 0
16/06:30pm 79.3 79.3 79.3 22.4 12 0.0 4.7 30.03 0.00 0 0
 
Date/Time
MST
 
Temp
°F
App
Temp
°F
Heat
Index
°F
Wind
Chill
°F
Dew
Point
°F
Rel
Hum
%
 
Dir
 
 
Spd
km/h
Wind
Gust
km/h
 
Speed
MPH
 
Gust
MPH
Press
MSL
in
Rain
Since 9am
in
 
Solar
W/m2
 
UV
Index
16/06:00pm 80.4 78.3 80.4 21.2 11 1.3 6.7 30.03 0.00 0 0
16/05:30pm 82.2 79.4 82.2 20.3 10 4.0 6.0 30.03 0.00 0 0
16/05:00pm 84.2 80.9 84.2 24.1 11 1.3 2.7 30.05 0.00 0 0
16/04:30pm 85.3 81.8 85.3 24.9 11 2.7 7.4 30.04 0.00 0 0
16/04:00pm 91.9 87.3 91.9 32.1 12 2.7 4.7 30.04 0.00 0 0
16/03:30pm 88.3 84.1 88.3 27.2 11 3.4 6.7 30.04 0.00 0 0
16/03:00pm 87.6 83.4 87.6 24.4 10 1.3 7.4 30.05 0.00 0 0
16/02:30pm 84.6 81.2 84.6 24.3 11 4.7 5.4 30.05 0.00 0 0
16/02:00pm 85.8 82.3 85.8 27.4 12 0.7 6.7 30.05 0.00 0 0
16/01:30pm 82.0 79.3 82.0 20.2 10 3.4 7.4 30.05 0.00 0 0
16/01:00pm 86.9 83.0 86.9 26.1 11 3.4 8.1 30.05 0.00 0 0
16/12:30pm 82.2 79.4 82.2 20.3 10 0.0 3.4 30.05 0.00 0 0
16/12:00pm 82.4 79.8 82.4 24.8 12 0.0 4.7 30.05 0.00 0 0
16/11:30am 85.1 81.8 85.1 26.8 12 2.0 6.0 30.05 0.00 0 0
16/11:00am 83.8 80.8 83.8 25.9 12 2.7 6.0 30.05 0.00 0 0
16/10:30am 82.0 79.3 82.0 20.2 10 1.3 7.4 30.06 0.00 0 0
16/10:00am 79.7 79.7 79.7 20.6 11 1.3 3.4 30.06 0.00 0 0
16/09:30am 76.3 76.3 76.3 33.5 21 0.0 3.4 30.05 0.00 0 0
16/09:00am 74.1 74.1 74.1 40.7 30 0.0 2.0 30.05 0.00 0 0
16/08:30am 70.7 70.7 70.7 36.9 29 0.0 1.3 30.05 0.00 0 0
16/08:09am 68.7 68.7 68.7 39.2 34 0.0 0.0 30.05 0.00 0 0
16/07:39am 66.9 66.9 66.9 39.1 36 0.7 1.3 30.04 0.00 0 0
16/07:09am 64.4 64.4 64.4 38.2 38 0.0 0.0 30.04 0.00 0 0
16/06:39am 64.0 64.0 64.0 34.3 33 0.0 0.0 30.04 0.00 0 0
16/06:09am 63.5 63.5 63.5 32.3 31 0.0 0.0 30.03 0.00 0 0
16/05:39am 61.7 61.7 61.7 35.8 38 0.0 0.0 30.03 0.00 0 0
16/05:09am 61.0 61.0 61.0 36.5 40 0.0 1.3 30.03 0.00 0 0
16/04:39am 63.3 63.3 63.3 37.3 38 0.0 0.0 30.03 0.00 0 0
16/04:09am 64.0 64.0 64.0 37.2 37 0.0 0.0 30.04 0.00 0 0
16/03:39am 62.2 62.2 62.2 37.0 39 0.0 0.0 30.04 0.00 0 0
16/03:09am 62.6 62.6 62.6 36.6 38 0.0 0.0 30.04 0.00 0 0
16/02:39am 61.9 61.9 61.9 36.0 38 0.0 0.0 30.04 0.00 0 0
16/02:09am 61.7 61.7 61.7 34.5 36 0.0 0.0 30.04 0.00 0 0
16/01:39am 63.3 63.3 63.3 32.9 32 0.0 0.0 30.05 0.00 0 0
16/01:09am 65.3 65.3 65.3 34.7 32 0.7 2.0 30.05 0.00 0 0
16/12:39am 67.6 67.6 67.6 32.4 27 0.0 0.0 30.05 0.00 0 0
16/12:09am 64.6 64.6 64.6 34.8 33 0.0 0.0 30.06 0.00 0 0
15/11:39pm 64.2 64.2 64.2 39.4 40 0.0 0.0 30.06 0.00 0 0
15/11:09pm 65.8 65.8 65.8 42.7 43 0.0 0.0 30.06 0.00 0 0
15/10:39pm 68.4 68.4 68.4 43.1 40 0.0 0.0 30.06 0.00 0 0
15/10:00pm 69.1 69.1 69.1 40.3 35 0.0 0.0 30.06 0.00 0 0
15/09:30pm 71.1 71.1 71.1 40.5 33 0.0 2.0 30.05 0.00 0 0
15/09:00pm 74.5 74.5 74.5 33.2 22 0.0 4.7 30.05 0.00 0 0
15/08:30pm 74.1 74.1 74.1 41.6 31 0.7 3.4 30.06 0.00 0 0
15/08:00pm 74.8 74.8 74.8 43.0 32 2.0 4.7 30.04 0.00 0 0
15/07:30pm 76.1 76.1 76.1 33.4 21 0.7 5.4 30.03 0.00 0 0
15/07:00pm 77.5 77.5 77.5 30.7 18 0.7 6.0 30.04 0.00 0 0
15/06:30pm 77.4 77.4 77.4 45.2 32 1.3 6.7 30.05 0.00 0 0
 
Date/Time
WST
 
Temp
°F
App
Temp
°F
Heat
Index
°F
Wind
Chill
°F
Dew
Point
°F
Rel
Hum
%
 
Dir
 
 
Spd
km/h
Wind
Gust
km/h
 
Spd
kts
 
Gust
kts
Press
MSL
in
Rain
Since 9am
in
 
Solar
W/m2
 
UV
Index
15/06:00pm 79.7 79.7 79.7 37.5 22 0.7 6.7 30.04 0.00 0 0
15/05:30pm 82.8 80.2 82.8 28.8 14 2.0 7.4 30.04 0.00 0 0
15/05:00pm 84.2 81.1 84.2 26.1 12 2.0 5.4 30.04 0.00 0 0
15/04:30pm 84.9 81.8 84.9 28.7 13 0.7 5.4 30.04 0.00 0 0
15/04:00pm 83.1 80.5 83.1 33.8 17 2.7 5.4 30.04 0.00 0 0
15/03:30pm 80.1 78.6 80.1 34.1 19 1.3 4.7 30.05 0.00 0 0
15/03:00pm 77.2 77.2 77.2 36.6 23 3.4 5.4 30.05 0.00 0 0
15/02:30pm 76.6 76.6 76.6 35.0 22 3.4 8.1 30.05 0.00 0 0
15/02:00pm 75.9 75.9 75.9 44.0 32 6.7 8.7 30.04 0.00 0 0
15/01:30pm 79.9 79.9 79.9 37.7 22 5.4 8.1 30.04 0.00 0 0
15/01:00pm 79.7 79.7 79.7 35.1 20 4.7 7.4 30.04 0.00 0 0
15/12:30pm 81.1 79.2 81.1 33.7 18 2.7 8.1 30.05 0.00 0 0
15/12:00pm 85.3 82.2 85.3 37.0 18 4.0 8.1 30.04 0.00 0 0
15/11:30am 89.2 84.7 89.2 25.6 10 2.7 4.7 30.04 0.00 0 0
15/11:00am 84.9 81.6 84.9 26.7 12 0.0 4.0 30.04 0.00 0 0
15/10:30am 81.3 79.2 81.3 25.8 13 2.7 5.4 30.04 0.00 0 0
15/10:00am 79.2 79.2 79.2 33.4 19 2.0 4.0 30.04 0.00 0 0
15/09:30am 76.3 76.3 76.3 37.9 25 0.0 6.0 30.05 0.00 0 0
15/09:00am 73.9 73.9 73.9 43.8 34 0.0 2.0 30.05 0.00 0 0
15/08:30am 71.4 71.4 71.4 45.9 40 0.0 1.3 30.05 0.00 0 0
15/08:00am 68.0 68.0 68.0 45.9 45 0.0 0.0 30.05 0.00 0 0
15/07:30am 65.8 65.8 65.8 43.3 44 0.0 0.0 30.04 0.00 0 0
15/07:00am 63.7 63.7 63.7 39.6 41 0.0 1.3 30.04 0.00 0 0
15/06:30am 61.3 61.3 61.3 36.8 40 0.0 1.3 30.04 0.00 0 0
15/06:00am 60.6 60.6 60.6 37.4 42 0.7 1.3 30.03 0.00 0 0
15/05:30am 60.1 60.1 60.1 38.1 44 0.0 0.0 30.03 0.00 0 0
15/05:00am 60.4 60.4 60.4 38.4 44 0.0 0.0 30.03 0.00 0 0
15/04:30am 61.5 61.5 61.5 38.2 42 0.0 0.0 30.03 0.00 0 0
15/04:00am 63.9 63.9 63.9 39.1 40 0.0 0.7 30.03 0.00 0 0
15/03:38am 61.9 61.9 61.9 37.3 40 0.0 0.0 30.03 0.00 0 0
15/03:08am 61.9 61.9 61.9 31.7 32 1.3 2.7 30.03 0.00 0 0
15/02:38am 59.9 59.9 59.9 32.9 36 0.7 1.3 30.03 0.00 0 0
15/02:08am 59.2 59.2 59.2 38.4 46 0.0 0.0 30.03 0.00 0 0
15/01:38am 60.1 60.1 60.1 36.9 42 0.0 0.0 30.03 0.00 0 0
15/01:08am 61.0 61.0 61.0 40.6 47 0.0 0.0 30.04 0.00 0 0
15/12:38am 62.2 62.2 62.2 39.5 43 0.0 0.0 30.04 0.00 0 0
15/12:08am 63.3 63.3 63.3 41.0 44 0.7 1.3 30.05 0.00 0 0
14/11:38pm 63.5 63.5 63.5 44.0 49 0.0 0.0 30.06 0.00 0 0
14/11:08pm 65.8 65.8 65.8 45.0 47 0.7 1.3 30.06 0.00 0 0
14/10:38pm 65.1 65.1 65.1 46.0 50 0.0 0.0 30.05 0.00 0 0
14/10:08pm 66.0 66.0 66.0 48.4 53 0.7 2.0 30.05 0.00 0 0
14/09:30pm 67.1 67.1 67.1 48.9 52 1.3 2.7 30.05 0.00 0 0
14/09:00pm 69.1 69.1 69.1 46.3 44 1.3 6.0 30.03 0.00 0 0
14/08:30pm 70.0 70.0 70.0 48.3 46 2.7 4.7 30.04 0.00 0 0
14/08:00pm 71.8 71.8 71.8 44.8 38 2.7 4.7 30.02 0.00 0 0
14/07:30pm 72.9 72.9 72.9 38.8 29 2.0 4.0 30.03 0.00 0 0
14/07:00pm 73.0 73.0 73.0 38.9 29 2.0 4.0 30.03 0.00 0 0
14/06:30pm 73.4 73.4 73.4 41.0 31 2.0 5.4 30.03 0.00 0 0
14/06:00pm 73.9 73.9 73.9 39.7 29 2.0 5.4 30.02 0.00 0 0
 
Date/Time
MST
 
Temp
°F
App
Temp
°F
Heat
Index
°F
Wind
Chill
°F
Dew
Point
°F
Rel
Hum
%
 
Dir
 
 
Spd
km/h
Wind
Gust
km/h
 
Speed
MPH
 
Gust
MPH
Press
MSL
in
Rain
Since 9am
in
 
Solar
W/m2
 
UV
Index




page updated 6/17/2021 6:00:00 PM
powered by  cumulus v1.9.4 (1099)
cumulus software support forum